sensor_id;sensor_type;location;lat;lon;timestamp;pressure;altitude;pressure_sealevel;temperature;humidity
77153;BME280;66124;51.146;17.072;2022-12-17T00:00:37;100401.34;;;-3.54;81.69
77153;BME280;66124;51.146;17.072;2022-12-17T00:03:22;100409.54;;;-3.56;81.80
77153;BME280;66124;51.146;17.072;2022-12-17T00:05:53;100418.13;;;-3.59;81.66
77153;BME280;66124;51.146;17.072;2022-12-17T00:08:23;100421.89;;;-3.62;81.59
77153;BME280;66124;51.146;17.072;2022-12-17T00:10:52;100422.95;;;-3.66;81.79
77153;BME280;66124;51.146;17.072;2022-12-17T00:13:22;100417.63;;;-3.72;81.72
77153;BME280;66124;51.146;17.072;2022-12-17T00:15:52;100419.36;;;-3.72;81.88
77153;BME280;66124;51.146;17.072;2022-12-17T00:18:22;100419.92;;;-3.73;81.94
77153;BME280;66124;51.146;17.072;2022-12-17T00:20:55;100421.48;;;-3.73;82.03
77153;BME280;66124;51.146;17.072;2022-12-17T00:23:25;100419.27;;;-3.73;81.90
77153;BME280;66124;51.146;17.072;2022-12-17T00:25:56;100420.52;;;-3.74;81.94
77153;BME280;66124;51.146;17.072;2022-12-17T00:28:25;100425.02;;;-3.72;82.03
77153;BME280;66124;51.146;17.072;2022-12-17T00:30:54;100429.19;;;-3.73;81.83
77153;BME280;66124;51.146;17.072;2022-12-17T00:33:23;100425.45;;;-3.73;81.96
77153;BME280;66124;51.146;17.072;2022-12-17T00:35:54;100432.58;;;-3.72;82.06
77153;BME280;66124;51.146;17.072;2022-12-17T00:38:23;100439.96;;;-3.69;81.96
77153;BME280;66124;51.146;17.072;2022-12-17T00:40:53;100442.66;;;-3.68;82.15
77153;BME280;66124;51.146;17.072;2022-12-17T00:43:22;100449.27;;;-3.66;81.97
77153;BME280;66124;51.146;17.072;2022-12-17T00:45:52;100449.84;;;-3.67;82.12
77153;BME280;66124;51.146;17.072;2022-12-17T00:48:20;100447.88;;;-3.69;82.15
77153;BME280;66124;51.146;17.072;2022-12-17T00:56:00;100446.86;;;-3.66;82.20
77153;BME280;66124;51.146;17.072;2022-12-17T00:58:29;100450.64;;;-3.66;82.03
77153;BME280;66124;51.146;17.072;2022-12-17T01:00:59;100450.46;;;-3.66;81.96
77153;BME280;66124;51.146;17.072;2022-12-17T01:03:29;100453.36;;;-3.65;81.93
77153;BME280;66124;51.146;17.072;2022-12-17T01:06:01;100457.77;;;-3.64;82.22
77153;BME280;66124;51.146;17.072;2022-12-17T01:08:31;100454.82;;;-3.64;81.96
77153;BME280;66124;51.146;17.072;2022-12-17T01:11:02;100455.77;;;-3.63;81.83
77153;BME280;66124;51.146;17.072;2022-12-17T01:13:32;100454.67;;;-3.61;81.83
77153;BME280;66124;51.146;17.072;2022-12-17T01:16:05;100455.98;;;-3.57;81.85
77153;BME280;66124;51.146;17.072;2022-12-17T01:18:34;100454.82;;;-3.55;81.76
77153;BME280;66124;51.146;17.072;2022-12-17T01:21:04;100455.92;;;-3.53;81.67
77153;BME280;66124;51.146;17.072;2022-12-17T01:23:33;100447.98;;;-3.59;81.64
77153;BME280;66124;51.146;17.072;2022-12-17T01:26:03;100453.16;;;-3.56;81.69
77153;BME280;66124;51.146;17.072;2022-12-17T01:28:32;100461.04;;;-3.59;81.68
77153;BME280;66124;51.146;17.072;2022-12-17T01:31:01;100463.81;;;-3.59;81.73
77153;BME280;66124;51.146;17.072;2022-12-17T01:33:31;100462.95;;;-3.62;81.76
77153;BME280;66124;51.146;17.072;2022-12-17T01:36:00;100463.33;;;-3.66;81.75
77153;BME280;66124;51.146;17.072;2022-12-17T01:38:29;100465.41;;;-3.69;81.89
77153;BME280;66124;51.146;17.072;2022-12-17T01:40:59;100472.44;;;-3.72;81.80
77153;BME280;66124;51.146;17.072;2022-12-17T01:43:34;100470.55;;;-3.75;81.85
77153;BME280;66124;51.146;17.072;2022-12-17T01:46:04;100461.21;;;-3.80;81.75
77153;BME280;66124;51.146;17.072;2022-12-17T01:48:37;100472.16;;;-3.79;81.94
77153;BME280;66124;51.146;17.072;2022-12-17T01:51:08;100470.71;;;-3.81;82.00
77153;BME280;66124;51.146;17.072;2022-12-17T01:53:42;100471.22;;;-3.81;81.90
77153;BME280;66124;51.146;17.072;2022-12-17T01:56:13;100479.55;;;-3.76;81.73
77153;BME280;66124;51.146;17.072;2022-12-17T01:58:44;100484.52;;;-3.73;81.80
77153;BME280;66124;51.146;17.072;2022-12-17T02:01:13;100484.58;;;-3.71;81.78
77153;BME280;66124;51.146;17.072;2022-12-17T02:03:43;100482.23;;;-3.69;81.75
77153;BME280;66124;51.146;17.072;2022-12-17T02:06:12;100492.30;;;-3.64;82.01
77153;BME280;66124;51.146;17.072;2022-12-17T02:08:44;100490.83;;;-3.63;81.93
77153;BME280;66124;51.146;17.072;2022-12-17T02:15:48;100490.02;;;-3.60;82.06
77153;BME280;66124;51.146;17.072;2022-12-17T02:18:23;100491.71;;;-3.63;81.82
77153;BME280;66124;51.146;17.072;2022-12-17T02:20:54;100496.48;;;-3.66;81.94
77153;BME280;66124;51.146;17.072;2022-12-17T02:23:34;100492.40;;;-3.66;81.78
77153;BME280;66124;51.146;17.072;2022-12-17T02:26:09;100498.30;;;-3.68;81.97
77153;BME280;66124;51.146;17.072;2022-12-17T02:28:42;100500.11;;;-3.69;81.84
77153;BME280;66124;51.146;17.072;2022-12-17T02:31:15;100499.83;;;-3.68;81.81
77153;BME280;66124;51.146;17.072;2022-12-17T02:33:45;100497.45;;;-3.64;81.86
77153;BME280;66124;51.146;17.072;2022-12-17T02:36:14;100499.88;;;-3.62;81.88
77153;BME280;66124;51.146;17.072;2022-12-17T02:38:44;100508.20;;;-3.63;81.76
77153;BME280;66124;51.146;17.072;2022-12-17T02:41:16;100505.61;;;-3.63;81.71
77153;BME280;66124;51.146;17.072;2022-12-17T02:43:46;100506.52;;;-3.61;81.62
77153;BME280;66124;51.146;17.072;2022-12-17T02:46:15;100504.45;;;-3.57;81.76
77153;BME280;66124;51.146;17.072;2022-12-17T02:48:45;100506.97;;;-3.57;81.64
77153;BME280;66124;51.146;17.072;2022-12-17T02:51:15;100506.86;;;-3.58;81.76
77153;BME280;66124;51.146;17.072;2022-12-17T02:53:52;100504.41;;;-3.57;81.56
77153;BME280;66124;51.146;17.072;2022-12-17T02:56:21;100510.95;;;-3.60;81.81
77153;BME280;66124;51.146;17.072;2022-12-17T02:58:50;100514.05;;;-3.64;81.82
77153;BME280;66124;51.146;17.072;2022-12-17T03:01:20;100517.73;;;-3.68;81.78
77153;BME280;66124;51.146;17.072;2022-12-17T03:03:49;100519.92;;;-3.74;81.71
77153;BME280;66124;51.146;17.072;2022-12-17T03:06:18;100523.64;;;-3.79;81.70
77153;BME280;66124;51.146;17.072;2022-12-17T03:08:48;100521.44;;;-3.82;81.85
77153;BME280;66124;51.146;17.072;2022-12-17T03:11:17;100529.73;;;-3.83;81.83
77153;BME280;66124;51.146;17.072;2022-12-17T03:13:46;100531.17;;;-3.84;81.87
77153;BME280;66124;51.146;17.072;2022-12-17T03:16:17;100525.38;;;-3.85;81.80
77153;BME280;66124;51.146;17.072;2022-12-17T03:18:46;100526.85;;;-3.84;81.85
77153;BME280;66124;51.146;17.072;2022-12-17T03:21:17;100521.09;;;-3.82;81.74
77153;BME280;66124;51.146;17.072;2022-12-17T03:23:47;100520.30;;;-3.80;81.92
77153;BME280;66124;51.146;17.072;2022-12-17T03:26:16;100523.95;;;-3.81;81.71
77153;BME280;66124;51.146;17.072;2022-12-17T03:28:45;100526.20;;;-3.81;81.87
77153;BME280;66124;51.146;17.072;2022-12-17T03:35:18;100516.34;;;-3.87;81.80
77153;BME280;66124;51.146;17.072;2022-12-17T03:37:47;100515.49;;;-3.90;81.98
77153;BME280;66124;51.146;17.072;2022-12-17T03:40:17;100518.64;;;-3.91;81.95
77153;BME280;66124;51.146;17.072;2022-12-17T03:42:46;100525.17;;;-3.94;82.12
77153;BME280;66124;51.146;17.072;2022-12-17T03:45:15;100529.84;;;-3.98;82.18
77153;BME280;66124;51.146;17.072;2022-12-17T03:47:45;100538.17;;;-4.00;82.12
77153;BME280;66124;51.146;17.072;2022-12-17T03:50:14;100545.85;;;-4.02;82.17
77153;BME280;66124;51.146;17.072;2022-12-17T03:52:43;100556.92;;;-4.04;82.19
77153;BME280;66124;51.146;17.072;2022-12-17T03:55:13;100555.90;;;-4.07;82.12
77153;BME280;66124;51.146;17.072;2022-12-17T03:57:42;100560.52;;;-4.07;82.23
77153;BME280;66124;51.146;17.072;2022-12-17T04:00:13;100563.64;;;-4.04;82.31
77153;BME280;66124;51.146;17.072;2022-12-17T04:02:42;100570.01;;;-4.01;82.43
77153;BME280;66124;51.146;17.072;2022-12-17T04:05:12;100572.48;;;-3.99;82.38
77153;BME280;66124;51.146;17.072;2022-12-17T04:07:41;100579.98;;;-3.98;82.32
77153;BME280;66124;51.146;17.072;2022-12-17T04:10:11;100580.50;;;-3.98;82.55
77153;BME280;66124;51.146;17.072;2022-12-17T04:12:41;100582.15;;;-4.00;82.48
77153;BME280;66124;51.146;17.072;2022-12-17T04:15:10;100583.47;;;-4.02;82.44
77153;BME280;66124;51.146;17.072;2022-12-17T04:17:39;100585.54;;;-4.06;82.45
77153;BME280;66124;51.146;17.072;2022-12-17T04:20:10;100588.61;;;-4.09;82.44
77153;BME280;66124;51.146;17.072;2022-12-17T04:22:39;100591.46;;;-4.11;82.55
77153;BME280;66124;51.146;17.072;2022-12-17T04:25:09;100595.36;;;-4.13;82.52
77153;BME280;66124;51.146;17.072;2022-12-17T04:27:38;100600.47;;;-4.12;82.32
77153;BME280;66124;51.146;17.072;2022-12-17T04:30:09;100601.01;;;-4.13;82.76
77153;BME280;66124;51.146;17.072;2022-12-17T04:32:38;100597.84;;;-4.12;82.58
77153;BME280;66124;51.146;17.072;2022-12-17T04:35:08;100601.57;;;-4.10;82.34
77153;BME280;66124;51.146;17.072;2022-12-17T04:37:37;100608.51;;;-4.09;82.51
77153;BME280;66124;51.146;17.072;2022-12-17T04:40:09;100610.83;;;-4.07;82.56
77153;BME280;66124;51.146;17.072;2022-12-17T04:42:39;100611.45;;;-4.06;82.54
77153;BME280;66124;51.146;17.072;2022-12-17T04:45:07;100614.98;;;-4.08;82.60
77153;BME280;66124;51.146;17.072;2022-12-17T04:47:35;100615.44;;;-4.10;82.57
77153;BME280;66124;51.146;17.072;2022-12-17T04:55:17;100622.89;;;-4.11;82.77
77153;BME280;66124;51.146;17.072;2022-12-17T04:57:47;100624.43;;;-4.14;82.69
77153;BME280;66124;51.146;17.072;2022-12-17T05:00:16;100623.19;;;-4.14;82.67
77153;BME280;66124;51.146;17.072;2022-12-17T05:02:46;100625.53;;;-4.12;82.71
77153;BME280;66124;51.146;17.072;2022-12-17T05:05:15;100624.48;;;-4.12;82.84
77153;BME280;66124;51.146;17.072;2022-12-17T05:07:44;100624.34;;;-4.13;82.76
77153;BME280;66124;51.146;17.072;2022-12-17T05:10:14;100626.73;;;-4.13;82.77
77153;BME280;66124;51.146;17.072;2022-12-17T05:12:43;100624.53;;;-4.13;82.56
77153;BME280;66124;51.146;17.072;2022-12-17T05:15:12;100626.19;;;-4.19;82.90
77153;BME280;66124;51.146;17.072;2022-12-17T05:17:42;100637.18;;;-4.19;82.71
77153;BME280;66124;51.146;17.072;2022-12-17T05:20:12;100639.96;;;-4.23;82.86
77153;BME280;66124;51.146;17.072;2022-12-17T05:22:41;100643.56;;;-4.27;82.92
77153;BME280;66124;51.146;17.072;2022-12-17T05:25:11;100652.10;;;-4.26;82.97
77153;BME280;66124;51.146;17.072;2022-12-17T05:27:40;100650.67;;;-4.25;82.98
77153;BME280;66124;51.146;17.072;2022-12-17T05:30:11;100652.79;;;-4.22;82.78
77153;BME280;66124;51.146;17.072;2022-12-17T05:32:40;100644.77;;;-4.19;82.88
77153;BME280;66124;51.146;17.072;2022-12-17T05:35:10;100644.36;;;-4.18;82.84
77153;BME280;66124;51.146;17.072;2022-12-17T05:37:39;100644.40;;;-4.19;83.08
77153;BME280;66124;51.146;17.072;2022-12-17T05:40:10;100643.52;;;-4.22;83.11
77153;BME280;66124;51.146;17.072;2022-12-17T05:42:39;100645.00;;;-4.24;83.19
77153;BME280;66124;51.146;17.072;2022-12-17T05:45:09;100657.05;;;-4.25;83.26
77153;BME280;66124;51.146;17.072;2022-12-17T05:47:39;100660.90;;;-4.27;83.35
77153;BME280;66124;51.146;17.072;2022-12-17T05:50:08;100662.91;;;-4.29;83.16
77153;BME280;66124;51.146;17.072;2022-12-17T05:52:38;100670.44;;;-4.29;83.24
77153;BME280;66124;51.146;17.072;2022-12-17T05:55:08;100672.14;;;-4.29;83.31
77153;BME280;66124;51.146;17.072;2022-12-17T05:57:37;100671.98;;;-4.29;83.21
77153;BME280;66124;51.146;17.072;2022-12-17T06:00:09;100674.20;;;-4.28;83.33
77153;BME280;66124;51.146;17.072;2022-12-17T06:02:38;100673.44;;;-4.27;83.36
77153;BME280;66124;51.146;17.072;2022-12-17T06:05:07;100677.52;;;-4.26;83.35
77153;BME280;66124;51.146;17.072;2022-12-17T06:07:34;100683.48;;;-4.25;83.48
77153;BME280;66124;51.146;17.072;2022-12-17T06:11:32;100685.83;;;-4.24;83.52
77153;BME280;66124;51.146;17.072;2022-12-17T06:14:01;100688.55;;;-4.27;83.46
77153;BME280;66124;51.146;17.072;2022-12-17T06:16:31;100694.52;;;-4.26;83.53
77153;BME280;66124;51.146;17.072;2022-12-17T06:19:00;100693.58;;;-4.28;83.66
77153;BME280;66124;51.146;17.072;2022-12-17T06:21:29;100693.70;;;-4.30;83.61
77153;BME280;66124;51.146;17.072;2022-12-17T06:23:59;100702.94;;;-4.34;83.70
77153;BME280;66124;51.146;17.072;2022-12-17T06:26:28;100709.23;;;-4.32;83.64
77153;BME280;66124;51.146;17.072;2022-12-17T06:28:57;100712.37;;;-4.30;83.72
77153;BME280;66124;51.146;17.072;2022-12-17T06:31:27;100716.75;;;-4.28;83.77
77153;BME280;66124;51.146;17.072;2022-12-17T06:33:56;100720.27;;;-4.26;83.74
77153;BME280;66124;51.146;17.072;2022-12-17T06:36:26;100719.86;;;-4.25;83.79
77153;BME280;66124;51.146;17.072;2022-12-17T06:38:55;100721.05;;;-4.25;83.92
77153;BME280;66124;51.146;17.072;2022-12-17T06:41:24;100726.92;;;-4.26;83.78
77153;BME280;66124;51.146;17.072;2022-12-17T06:43:53;100731.41;;;-4.27;83.90
77153;BME280;66124;51.146;17.072;2022-12-17T06:46:23;100734.64;;;-4.29;83.79
77153;BME280;66124;51.146;17.072;2022-12-17T06:48:52;100739.45;;;-4.29;83.91
77153;BME280;66124;51.146;17.072;2022-12-17T06:51:22;100741.87;;;-4.30;84.04
77153;BME280;66124;51.146;17.072;2022-12-17T06:53:51;100741.47;;;-4.28;83.96
77153;BME280;66124;51.146;17.072;2022-12-17T06:56:20;100743.95;;;-4.26;83.84
77153;BME280;66124;51.146;17.072;2022-12-17T06:58:50;100734.73;;;-4.31;83.95
77153;BME280;66124;51.146;17.072;2022-12-17T07:01:19;100755.31;;;-4.24;83.90
77153;BME280;66124;51.146;17.072;2022-12-17T07:03:48;100756.45;;;-4.22;83.87
77153;BME280;66124;51.146;17.072;2022-12-17T07:06:18;100764.13;;;-4.21;84.01
77153;BME280;66124;51.146;17.072;2022-12-17T07:08:47;100770.50;;;-4.18;83.99
77153;BME280;66124;51.146;17.072;2022-12-17T07:11:16;100768.59;;;-4.18;83.99
77153;BME280;66124;51.146;17.072;2022-12-17T07:13:45;100771.17;;;-4.18;83.93
77153;BME280;66124;51.146;17.072;2022-12-17T07:16:15;100777.16;;;-4.18;83.91
77153;BME280;66124;51.146;17.072;2022-12-17T07:18:44;100782.02;;;-4.18;83.93
77153;BME280;66124;51.146;17.072;2022-12-17T07:21:14;100790.83;;;-4.20;84.08
77153;BME280;66124;51.146;17.072;2022-12-17T07:23:43;100797.92;;;-4.21;83.98
77153;BME280;66124;51.146;17.072;2022-12-17T07:30:36;100803.55;;;-4.13;84.05
77153;BME280;66124;51.146;17.072;2022-12-17T07:33:07;100808.81;;;-4.11;83.74
77153;BME280;66124;51.146;17.072;2022-12-17T07:35:37;100810.71;;;-4.08;83.90
77153;BME280;66124;51.146;17.072;2022-12-17T07:38:07;100815.89;;;-4.05;84.07
77153;BME280;66124;51.146;17.072;2022-12-17T07:40:37;100816.23;;;-4.02;83.95
77153;BME280;66124;51.146;17.072;2022-12-17T07:43:12;100822.18;;;-3.97;84.11
77153;BME280;66124;51.146;17.072;2022-12-17T07:45:41;100826.67;;;-3.94;84.02
77153;BME280;66124;51.146;17.072;2022-12-17T07:48:11;100830.77;;;-3.94;83.99
77153;BME280;66124;51.146;17.072;2022-12-17T07:50:40;100838.52;;;-3.94;83.99
77153;BME280;66124;51.146;17.072;2022-12-17T07:53:09;100841.13;;;-3.95;83.95
77153;BME280;66124;51.146;17.072;2022-12-17T07:55:39;100844.58;;;-3.95;83.95
77153;BME280;66124;51.146;17.072;2022-12-17T07:58:10;100844.90;;;-3.95;83.85
77153;BME280;66124;51.146;17.072;2022-12-17T08:00:39;100848.23;;;-3.93;83.95
77153;BME280;66124;51.146;17.072;2022-12-17T08:03:09;100847.80;;;-3.91;83.87
77153;BME280;66124;51.146;17.072;2022-12-17T08:05:39;100847.64;;;-3.87;83.70
77153;BME280;66124;51.146;17.072;2022-12-17T08:08:10;100848.90;;;-3.85;83.82
77153;BME280;66124;51.146;17.072;2022-12-17T08:10:42;100853.45;;;-3.83;83.81
77153;BME280;66124;51.146;17.072;2022-12-17T08:13:11;100859.75;;;-3.82;83.97
77153;BME280;66124;51.146;17.072;2022-12-17T08:15:41;100858.82;;;-3.81;84.04
77153;BME280;66124;51.146;17.072;2022-12-17T08:18:10;100865.73;;;-3.78;83.95
77153;BME280;66124;51.146;17.072;2022-12-17T08:20:40;100868.73;;;-3.76;83.96
77153;BME280;66124;51.146;17.072;2022-12-17T08:23:09;100870.15;;;-3.73;83.93
77153;BME280;66124;51.146;17.072;2022-12-17T08:25:38;100868.52;;;-3.72;84.09
77153;BME280;66124;51.146;17.072;2022-12-17T08:28:08;100873.30;;;-3.67;84.08
77153;BME280;66124;51.146;17.072;2022-12-17T08:30:37;100875.91;;;-3.65;83.91
77153;BME280;66124;51.146;17.072;2022-12-17T08:33:06;100877.90;;;-3.64;83.71
77153;BME280;66124;51.146;17.072;2022-12-17T08:35:36;100872.54;;;-3.63;83.90
77153;BME280;66124;51.146;17.072;2022-12-17T08:38:06;100876.76;;;-3.61;83.56
77153;BME280;66124;51.146;17.072;2022-12-17T08:40:35;100883.16;;;-3.62;83.56
77153;BME280;66124;51.146;17.072;2022-12-17T08:43:04;100887.88;;;-3.64;83.49
77153;BME280;66124;51.146;17.072;2022-12-17T08:50:39;100898.46;;;-3.55;83.23
77153;BME280;66124;51.146;17.072;2022-12-17T08:53:08;100897.96;;;-3.56;83.34
77153;BME280;66124;51.146;17.072;2022-12-17T08:55:37;100894.92;;;-3.57;83.10
77153;BME280;66124;51.146;17.072;2022-12-17T08:58:07;100895.31;;;-3.58;83.27
77153;BME280;66124;51.146;17.072;2022-12-17T09:00:37;100901.82;;;-3.61;83.25
77153;BME280;66124;51.146;17.072;2022-12-17T09:03:07;100911.09;;;-3.61;83.30
77153;BME280;66124;51.146;17.072;2022-12-17T09:05:36;100914.48;;;-3.60;83.26
77153;BME280;66124;51.146;17.072;2022-12-17T09:08:06;100914.02;;;-3.57;83.32
77153;BME280;66124;51.146;17.072;2022-12-17T09:10:36;100912.02;;;-3.55;83.19
77153;BME280;66124;51.146;17.072;2022-12-17T09:13:05;100917.94;;;-3.53;83.10
77153;BME280;66124;51.146;17.072;2022-12-17T09:15:34;100914.30;;;-3.52;82.93
77153;BME280;66124;51.146;17.072;2022-12-17T09:18:04;100915.34;;;-3.52;82.99
77153;BME280;66124;51.146;17.072;2022-12-17T09:20:33;100914.13;;;-3.52;82.93
77153;BME280;66124;51.146;17.072;2022-12-17T09:23:03;100920.77;;;-3.51;83.10
77153;BME280;66124;51.146;17.072;2022-12-17T09:25:32;100919.88;;;-3.50;82.95
77153;BME280;66124;51.146;17.072;2022-12-17T09:28:02;100924.80;;;-3.49;83.06
77153;BME280;66124;51.146;17.072;2022-12-17T09:30:31;100923.20;;;-3.48;82.93
77153;BME280;66124;51.146;17.072;2022-12-17T09:33:01;100928.70;;;-3.48;82.78
77153;BME280;66124;51.146;17.072;2022-12-17T09:35:30;100923.98;;;-3.46;82.82
77153;BME280;66124;51.146;17.072;2022-12-17T09:37:59;100921.75;;;-3.42;82.65
77153;BME280;66124;51.146;17.072;2022-12-17T09:40:30;100922.45;;;-3.40;82.68
77153;BME280;66124;51.146;17.072;2022-12-17T09:43:04;100925.13;;;-3.38;82.75
77153;BME280;66124;51.146;17.072;2022-12-17T09:45:39;100931.27;;;-3.37;82.65
77153;BME280;66124;51.146;17.072;2022-12-17T09:48:18;100932.15;;;-3.37;82.74
77153;BME280;66124;51.146;17.072;2022-12-17T09:50:52;100936.56;;;-3.40;82.57
77153;BME280;66124;51.146;17.072;2022-12-17T09:53:34;100941.27;;;-3.45;82.57
77153;BME280;66124;51.146;17.072;2022-12-17T09:56:06;100939.56;;;-3.48;82.62
77153;BME280;66124;51.146;17.072;2022-12-17T09:58:39;100940.02;;;-3.47;82.55
77153;BME280;66124;51.146;17.072;2022-12-17T10:01:14;100941.55;;;-3.47;82.41
77153;BME280;66124;51.146;17.072;2022-12-17T10:03:44;100942.48;;;-3.45;82.38
77153;BME280;66124;51.146;17.072;2022-12-17T10:11:26;100942.91;;;-3.47;82.43
77153;BME280;66124;51.146;17.072;2022-12-17T10:13:56;100945.04;;;-3.48;82.42
77153;BME280;66124;51.146;17.072;2022-12-17T10:16:30;100946.95;;;-3.48;82.32
77153;BME280;66124;51.146;17.072;2022-12-17T10:19:01;100945.06;;;-3.52;82.29
77153;BME280;66124;51.146;17.072;2022-12-17T10:21:31;100949.02;;;-3.56;82.40
77153;BME280;66124;51.146;17.072;2022-12-17T10:24:09;100950.14;;;-3.54;82.36
77153;BME280;66124;51.146;17.072;2022-12-17T10:26:38;100951.30;;;-3.54;82.45
77153;BME280;66124;51.146;17.072;2022-12-17T10:29:17;100957.07;;;-3.51;82.53
77153;BME280;66124;51.146;17.072;2022-12-17T10:31:48;100960.38;;;-3.49;82.62
77153;BME280;66124;51.146;17.072;2022-12-17T10:34:19;100968.30;;;-3.46;82.65
77153;BME280;66124;51.146;17.072;2022-12-17T10:36:50;100968.38;;;-3.44;82.80
77153;BME280;66124;51.146;17.072;2022-12-17T10:39:22;100979.84;;;-3.43;82.77
77153;BME280;66124;51.146;17.072;2022-12-17T10:41:50;100990.03;;;-3.44;82.58
77153;BME280;66124;51.146;17.072;2022-12-17T10:44:26;100992.30;;;-3.48;82.58
77153;BME280;66124;51.146;17.072;2022-12-17T10:46:57;100997.64;;;-3.48;82.58
77153;BME280;66124;51.146;17.072;2022-12-17T10:49:27;101001.55;;;-3.47;82.56
77153;BME280;66124;51.146;17.072;2022-12-17T10:52:01;101002.35;;;-3.46;82.71
77153;BME280;66124;51.146;17.072;2022-12-17T10:54:32;101002.84;;;-3.46;82.61
77153;BME280;66124;51.146;17.072;2022-12-17T10:57:02;101003.52;;;-3.45;82.48
77153;BME280;66124;51.146;17.072;2022-12-17T10:59:35;101006.17;;;-3.43;82.72
77153;BME280;66124;51.146;17.072;2022-12-17T11:02:18;101006.56;;;-3.44;82.47
77153;BME280;66124;51.146;17.072;2022-12-17T11:04:53;101004.09;;;-3.47;82.59
77153;BME280;66124;51.146;17.072;2022-12-17T11:07:26;101001.30;;;-3.49;82.64
77153;BME280;66124;51.146;17.072;2022-12-17T11:09:59;101003.87;;;-3.49;82.78
77153;BME280;66124;51.146;17.072;2022-12-17T11:12:33;101008.01;;;-3.49;82.93
77153;BME280;66124;51.146;17.072;2022-12-17T11:15:17;101010.92;;;-3.46;82.67
77153;BME280;66124;51.146;17.072;2022-12-17T11:17:48;101012.08;;;-3.41;82.78
77153;BME280;66124;51.146;17.072;2022-12-17T11:20:23;101016.02;;;-3.37;82.61
77153;BME280;66124;51.146;17.072;2022-12-17T11:22:53;101016.27;;;-3.35;82.72
77153;BME280;66124;51.146;17.072;2022-12-17T11:33:02;101027.66;;;-3.32;82.61
77153;BME280;66124;51.146;17.072;2022-12-17T11:35:41;101035.00;;;-3.35;82.69
77153;BME280;66124;51.146;17.072;2022-12-17T11:38:20;101039.80;;;-3.35;82.67
77153;BME280;66124;51.146;17.072;2022-12-17T11:40:53;101044.28;;;-3.35;82.57
77153;BME280;66124;51.146;17.072;2022-12-17T11:43:27;101048.48;;;-3.37;82.72
77153;BME280;66124;51.146;17.072;2022-12-17T11:46:11;101051.19;;;-3.36;82.59
77153;BME280;66124;51.146;17.072;2022-12-17T11:48:47;101055.02;;;-3.33;82.61
77153;BME280;66124;51.146;17.072;2022-12-17T11:51:23;101059.31;;;-3.30;82.64
77153;BME280;66124;51.146;17.072;2022-12-17T11:53:59;101063.02;;;-3.28;82.62
77153;BME280;66124;51.146;17.072;2022-12-17T11:56:35;101067.27;;;-3.27;82.68
77153;BME280;66124;51.146;17.072;2022-12-17T11:59:11;101068.98;;;-3.27;82.61
77153;BME280;66124;51.146;17.072;2022-12-17T12:01:48;101071.18;;;-3.26;82.58
77153;BME280;66124;51.146;17.072;2022-12-17T12:04:33;101065.74;;;-3.27;82.41
77153;BME280;66124;51.146;17.072;2022-12-17T12:07:04;101064.90;;;-3.28;82.27
77153;BME280;66124;51.146;17.072;2022-12-17T12:09:43;101066.58;;;-3.31;82.36
77153;BME280;66124;51.146;17.072;2022-12-17T12:12:26;101070.88;;;-3.34;82.28
77153;BME280;66124;51.146;17.072;2022-12-17T12:15:06;101067.07;;;-3.34;82.32
77153;BME280;66124;51.146;17.072;2022-12-17T12:17:42;101070.10;;;-3.29;82.28
77153;BME280;66124;51.146;17.072;2022-12-17T12:20:23;101075.36;;;-3.24;82.14
77153;BME280;66124;51.146;17.072;2022-12-17T12:23:00;101078.91;;;-3.22;82.09
77153;BME280;66124;51.146;17.072;2022-12-17T12:25:39;101078.84;;;-3.21;82.08
77153;BME280;66124;51.146;17.072;2022-12-17T12:28:17;101074.27;;;-3.22;81.98
77153;BME280;66124;51.146;17.072;2022-12-17T12:30:54;101074.98;;;-3.23;81.87
77153;BME280;66124;51.146;17.072;2022-12-17T12:33:33;101075.98;;;-3.26;81.88
77153;BME280;66124;51.146;17.072;2022-12-17T12:36:09;101080.30;;;-3.30;81.81
77153;BME280;66124;51.146;17.072;2022-12-17T12:38:41;101082.45;;;-3.32;81.89
77153;BME280;66124;51.146;17.072;2022-12-17T12:41:18;101085.21;;;-3.32;81.97
77153;BME280;66124;51.146;17.072;2022-12-17T12:43:53;101084.55;;;-3.33;82.11
77153;BME280;66124;51.146;17.072;2022-12-17T12:46:25;101091.30;;;-3.30;81.98
77153;BME280;66124;51.146;17.072;2022-12-17T12:54:29;101101.53;;;-3.32;81.76
77153;BME280;66124;51.146;17.072;2022-12-17T12:56:58;101110.05;;;-3.34;81.75
77153;BME280;66124;51.146;17.072;2022-12-17T12:59:29;101113.37;;;-3.35;81.53
77153;BME280;66124;51.146;17.072;2022-12-17T13:01:59;101111.47;;;-3.35;81.57
77153;BME280;66124;51.146;17.072;2022-12-17T13:04:33;101111.55;;;-3.36;81.71
77153;BME280;66124;51.146;17.072;2022-12-17T13:07:03;101114.84;;;-3.40;81.57
77153;BME280;66124;51.146;17.072;2022-12-17T13:09:48;101120.45;;;-3.43;81.73
77153;BME280;66124;51.146;17.072;2022-12-17T13:12:26;101125.90;;;-3.46;81.59
77153;BME280;66124;51.146;17.072;2022-12-17T13:15:07;101126.69;;;-3.48;81.57
77153;BME280;66124;51.146;17.072;2022-12-17T13:17:40;101133.42;;;-3.45;81.43
77153;BME280;66124;51.146;17.072;2022-12-17T13:20:25;101129.19;;;-3.46;81.67
77153;BME280;66124;51.146;17.072;2022-12-17T13:23:16;101131.16;;;-3.48;81.44
77153;BME280;66124;51.146;17.072;2022-12-17T13:28:58;101132.02;;;-3.52;81.41
77153;BME280;66124;51.146;17.072;2022-12-17T13:31:32;101136.38;;;-3.54;81.49
77153;BME280;66124;51.146;17.072;2022-12-17T13:34:17;101141.73;;;-3.54;81.67
77153;BME280;66124;51.146;17.072;2022-12-17T13:36:54;101143.40;;;-3.57;81.53
77153;BME280;66124;51.146;17.072;2022-12-17T13:39:35;101149.13;;;-3.62;81.51
77153;BME280;66124;51.146;17.072;2022-12-17T13:42:18;101157.16;;;-3.65;81.60
77153;BME280;66124;51.146;17.072;2022-12-17T13:44:50;101159.88;;;-3.65;81.59
77153;BME280;66124;51.146;17.072;2022-12-17T13:47:23;101162.96;;;-3.60;81.70
77153;BME280;66124;51.146;17.072;2022-12-17T13:49:54;101165.34;;;-3.56;81.68
77153;BME280;66124;51.146;17.072;2022-12-17T13:52:26;101176.34;;;-3.52;81.55